Riverview, Michigan
Current Conditions -  °F | °C
As of 1:55 PM on Thursday 30 Oct 2014 (Local Time) from KONZ Reporting Station
Overcast Overcast  
Wind Chill: 46°   Ceiling: 4100
Heat Index: 48°   Visibility: 10mi
Dew Point: 36°   Wind: 6mph
Humidity: 62%   Direction: 260°W
Pressure: 30.1"   Gusts: NA
Location:  42.18°N, 83.19°W
Report Text: KONZ 301755Z AUTO 26005KT 10SM OVC041 09/02 A3010 RMK AO2
Loading
Personal Weather Stations






























Interactive Weather Map
Tropical Storm Tracking
New forecast layout! Learn more

10-Day Weather Forecast

Advertisements
Track Severe Weather on mobile